createdAt,value
2022-08-27T00:01:00.649Z,6.90
2022-08-27T00:06:06.218Z,7.20
2022-08-27T00:08:39.299Z,6.50
2022-08-27T00:11:11.891Z,7.10
2022-08-27T00:13:44.951Z,6.80
2022-08-27T00:16:20.424Z,7.40
2022-08-27T00:18:53.061Z,6.70
2022-08-27T00:21:25.891Z,7.20
2022-08-27T00:23:58.430Z,7.50
2022-08-27T00:26:31.041Z,6.80
2022-08-27T00:29:03.621Z,7.40
2022-08-27T00:31:36.129Z,6.40
2022-08-27T00:34:12.993Z,6.30
2022-08-27T00:36:45.960Z,7.00
2022-08-27T00:39:18.529Z,7.30
2022-08-27T00:41:51.161Z,7.40
2022-08-27T00:44:23.694Z,7.30
2022-08-27T00:47:01.911Z,7.50
2022-08-27T00:49:40.423Z,7.70
2022-08-27T00:52:22.315Z,7.80
2022-08-27T00:54:57.901Z,7.60
2022-08-27T00:57:31.202Z,7.00
2022-08-27T01:00:05.131Z,7.70
2022-08-27T01:02:37.681Z,7.80
2022-08-27T01:05:13.711Z,8.70
2022-08-27T01:07:50.361Z,7.70
2022-08-27T01:10:26.621Z,8.10
2022-08-27T01:12:59.981Z,7.90
2022-08-27T01:15:33.510Z,8.10
2022-08-27T01:18:07.634Z,8.00
2022-08-27T01:20:48.609Z,7.50
2022-08-27T01:23:28.899Z,6.90
2022-08-27T01:26:03.441Z,8.60
2022-08-27T01:28:37.545Z,7.70
2022-08-27T01:31:12.985Z,7.90
2022-08-27T01:33:57.890Z,8.10
2022-08-27T01:36:30.841Z,8.30
2022-08-27T01:39:03.769Z,8.20
2022-08-27T01:41:38.181Z,7.80
2022-08-27T01:44:12.500Z,8.00
2022-08-27T01:46:47.920Z,9.20
2022-08-27T01:49:20.340Z,7.80
2022-08-27T01:51:53.031Z,8.20
2022-08-27T01:54:26.189Z,8.60
2022-08-27T01:57:01.111Z,8.80
2022-08-27T01:59:39.567Z,8.40
2022-08-27T02:02:13.994Z,8.60
2022-08-27T02:04:47.150Z,8.90
2022-08-27T02:07:20.121Z,8.90
2022-08-27T02:09:52.499Z,8.30
2022-08-27T02:12:24.869Z,8.30
2022-08-27T02:14:57.138Z,8.90
2022-08-27T02:17:29.701Z,9.40
2022-08-27T02:20:02.401Z,9.00
2022-08-27T02:22:35.143Z,9.30
2022-08-27T02:25:11.727Z,9.50
2022-08-27T02:27:45.059Z,9.20
2022-08-27T02:32:49.950Z,9.20
2022-08-27T02:35:25.351Z,9.40
2022-08-27T02:37:58.640Z,9.10
2022-08-27T02:40:31.492Z,10.70
2022-08-27T02:43:04.269Z,9.80
2022-08-27T02:48:09.637Z,8.70
2022-08-27T02:50:42.481Z,9.40
2022-08-27T02:53:20.349Z,10.20
2022-08-27T02:56:21.931Z,10.00
2022-08-27T02:58:57.779Z,9.20
2022-08-27T03:01:35.617Z,10.50
2022-08-27T03:04:12.991Z,10.60
2022-08-27T03:06:51.510Z,10.40
2022-08-27T03:09:37.260Z,10.50
2022-08-27T03:12:36.021Z,9.90
2022-08-27T03:15:18.369Z,10.00
2022-08-27T03:18:09.619Z,10.10
2022-08-27T03:20:47.081Z,9.80
2022-08-27T03:23:23.478Z,9.80
2022-08-27T03:26:00.051Z,10.40
2022-08-27T03:28:35.822Z,10.20
2022-08-27T03:31:15.012Z,10.10
2022-08-27T03:33:47.790Z,9.90
2022-08-27T03:36:20.498Z,10.50
2022-08-27T03:38:53.059Z,10.90
2022-08-27T03:41:43.458Z,10.40
2022-08-27T03:44:21.767Z,10.10
2022-08-27T03:46:55.600Z,10.60
2022-08-27T03:49:27.921Z,10.50
2022-08-27T03:52:00.900Z,11.20
2022-08-27T03:54:36.098Z,10.70
2022-08-27T03:57:10.969Z,10.70
2022-08-27T03:59:43.210Z,9.80
2022-08-27T04:02:16.657Z,11.30
2022-08-27T04:07:19.669Z,11.00
2022-08-27T04:09:52.329Z,10.40
2022-08-27T04:12:24.933Z,10.30
2022-08-27T04:14:57.212Z,10.30
2022-08-27T04:17:30.314Z,10.60
2022-08-27T04:20:34.109Z,10.70
2022-08-27T04:23:03.896Z,11.00
2022-08-27T04:25:40.241Z,11.20
2022-08-27T04:28:16.761Z,11.30
2022-08-27T04:30:52.419Z,11.30
2022-08-27T04:33:25.241Z,10.70
2022-08-27T04:36:03.149Z,11.00
2022-08-27T04:38:36.011Z,10.90
2022-08-27T04:41:23.616Z,10.50
2022-08-27T04:43:58.440Z,11.60
2022-08-27T04:46:32.401Z,10.80
2022-08-27T04:49:10.188Z,11.20
2022-08-27T04:51:43.425Z,9.60
2022-08-27T04:54:16.241Z,9.50
2022-08-27T04:59:20.209Z,8.90
2022-08-27T05:01:52.864Z,8.50
2022-08-27T05:04:26.601Z,9.20
2022-08-27T05:06:59.621Z,9.30
2022-08-27T05:09:32.589Z,9.90
2022-08-27T05:12:08.269Z,9.50
2022-08-27T05:14:40.628Z,10.60
2022-08-27T05:17:12.907Z,11.10
2022-08-27T05:19:45.397Z,10.40
2022-08-27T05:22:17.720Z,12.00
2022-08-27T05:24:50.961Z,11.30
2022-08-27T05:29:53.654Z,10.40
2022-08-27T05:32:25.926Z,10.70
2022-08-27T05:34:58.441Z,10.50
2022-08-27T05:37:30.688Z,10.40
2022-08-27T05:40:05.779Z,10.70
2022-08-27T05:42:38.206Z,11.00
2022-08-27T05:45:11.859Z,11.10
2022-08-27T05:47:47.369Z,10.70
2022-08-27T05:50:23.568Z,10.30
2022-08-27T05:52:56.571Z,10.30
2022-08-27T05:55:28.982Z,9.30
2022-08-27T05:58:01.362Z,10.00
2022-08-27T06:00:51.238Z,9.70
2022-08-27T06:03:23.820Z,9.30
2022-08-27T06:06:04.140Z,10.40
2022-08-27T06:08:37.213Z,9.40
2022-08-27T06:11:12.086Z,9.60
2022-08-27T06:13:46.231Z,10.10
2022-08-27T06:16:21.390Z,9.50
2022-08-27T06:18:59.458Z,9.50
2022-08-27T06:21:33.882Z,8.60
2022-08-27T06:24:08.240Z,8.80
2022-08-27T06:26:41.299Z,9.40
2022-08-27T06:31:51.157Z,9.40
2022-08-27T06:34:27.539Z,9.00
2022-08-27T06:37:02.951Z,9.00
2022-08-27T06:39:41.680Z,9.00
2022-08-27T06:42:21.039Z,8.80
2022-08-27T06:44:56.590Z,8.40
2022-08-27T06:47:29.171Z,7.60
2022-08-27T06:50:01.741Z,9.60
2022-08-27T06:52:34.593Z,9.20
2022-08-27T06:55:07.910Z,8.40
2022-08-27T06:57:40.481Z,9.50
2022-08-27T07:00:17.087Z,8.60
2022-08-27T07:02:50.027Z,8.50
2022-08-27T07:05:22.919Z,8.30
2022-08-27T07:10:26.792Z,8.70
2022-08-27T07:13:02.711Z,8.60
2022-08-27T07:15:35.513Z,8.20
2022-08-27T07:18:11.131Z,8.00
2022-08-27T07:20:45.410Z,8.20
2022-08-27T07:23:21.361Z,8.60
2022-08-27T07:25:54.042Z,7.80
2022-08-27T07:28:27.271Z,7.80
2022-08-27T07:30:59.592Z,8.60
2022-08-27T07:33:32.559Z,8.10
2022-08-27T07:36:05.748Z,9.00
2022-08-27T07:38:41.983Z,9.10
2022-08-27T07:41:15.686Z,8.40
2022-08-27T07:44:18.741Z,8.20
2022-08-27T07:46:55.459Z,8.00
2022-08-27T07:49:29.719Z,8.00
2022-08-27T07:52:02.071Z,8.00
2022-08-27T07:54:35.641Z,7.60
2022-08-27T07:57:08.179Z,8.00
2022-08-27T07:59:41.001Z,7.90
2022-08-27T08:02:16.043Z,7.50
2022-08-27T08:04:48.898Z,7.60
2022-08-27T08:07:25.751Z,7.70
2022-08-27T08:09:59.600Z,7.20
2022-08-27T08:12:35.525Z,6.80
2022-08-27T08:15:13.133Z,6.70
2022-08-27T08:17:48.779Z,7.50
2022-08-27T08:20:35.932Z,8.90
2022-08-27T08:23:15.434Z,9.00
2022-08-27T08:25:48.229Z,10.80
2022-08-27T08:28:21.097Z,9.50
2022-08-27T08:30:54.928Z,8.80
2022-08-27T08:33:28.741Z,10.10
2022-08-27T08:36:07.536Z,10.10
2022-08-27T08:38:40.536Z,8.90
2022-08-27T08:41:44.098Z,9.30
2022-08-27T08:44:27.046Z,9.90
2022-08-27T08:47:04.885Z,8.40
2022-08-27T08:49:53.419Z,8.10
2022-08-27T08:52:43.968Z,8.40
2022-08-27T08:55:29.576Z,7.90
2022-08-27T08:58:14.068Z,7.50
2022-08-27T09:00:54.028Z,6.70
2022-08-27T09:03:27.385Z,7.10
2022-08-27T09:06:03.248Z,6.40
2022-08-27T09:08:41.367Z,7.00
2022-08-27T09:11:22.988Z,6.50
2022-08-27T09:14:03.348Z,7.10
2022-08-27T09:16:35.773Z,7.20
2022-08-27T09:19:13.072Z,6.30
2022-08-27T09:21:53.458Z,6.00
2022-08-27T09:24:36.208Z,6.20
2022-08-27T09:27:12.721Z,6.50
2022-08-27T09:29:52.928Z,6.40
2022-08-27T09:32:29.026Z,6.90
2022-08-27T09:35:05.091Z,6.50
2022-08-27T09:37:44.866Z,6.20
2022-08-27T09:40:29.555Z,6.10
2022-08-27T09:43:09.957Z,6.80
2022-08-27T09:45:51.725Z,6.70
2022-08-27T09:48:27.548Z,6.70
2022-08-27T09:51:05.876Z,7.20
2022-08-27T09:53:44.939Z,6.70
2022-08-27T09:56:29.468Z,6.50
2022-08-27T09:59:08.948Z,6.70
2022-08-27T10:01:58.066Z,6.40
2022-08-27T10:04:38.078Z,6.50
2022-08-27T10:07:34.629Z,6.40
2022-08-27T10:10:15.354Z,6.50
2022-08-27T10:12:56.909Z,6.80
2022-08-27T10:15:36.555Z,6.40
2022-08-27T10:18:29.148Z,6.10
2022-08-27T10:21:11.801Z,5.20
2022-08-27T10:23:55.118Z,6.50
2022-08-27T10:26:35.437Z,6.10
2022-08-27T10:29:16.141Z,6.20
2022-08-27T10:32:04.341Z,6.00
2022-08-27T10:34:44.189Z,6.60
2022-08-27T10:37:36.834Z,7.40
2022-08-27T10:40:20.104Z,6.50
2022-08-27T10:43:03.987Z,6.30
2022-08-27T10:45:45.011Z,6.20
2022-08-27T10:48:30.446Z,6.80
2022-08-27T10:51:11.588Z,7.00
2022-08-27T10:53:52.929Z,6.90
2022-08-27T10:56:35.935Z,6.50
2022-08-27T10:59:25.378Z,6.70
2022-08-27T11:02:08.202Z,7.10
2022-08-27T11:07:20.728Z,6.50
2022-08-27T11:09:58.078Z,6.40
2022-08-27T11:12:35.507Z,4.70
2022-08-27T11:15:13.199Z,6.10
2022-08-27T11:17:56.961Z,5.20
2022-08-27T11:20:33.617Z,6.10
2022-08-27T11:23:10.178Z,5.90
2022-08-27T11:25:52.834Z,5.10
2022-08-27T11:28:31.918Z,5.50
2022-08-27T11:31:14.068Z,5.90
2022-08-27T11:33:54.826Z,5.30
2022-08-27T11:37:04.325Z,6.60
2022-08-27T11:40:08.112Z,5.80
2022-08-27T11:42:43.484Z,5.30
2022-08-27T11:45:21.598Z,6.00
2022-08-27T11:47:59.305Z,5.70
2022-08-27T11:50:34.035Z,5.30
2022-08-27T11:53:08.586Z,5.60
2022-08-27T11:55:42.228Z,5.40
2022-08-27T11:58:28.617Z,4.30
2022-08-27T12:01:04.883Z,4.70
2022-08-27T12:03:38.307Z,3.90
2022-08-27T12:06:26.326Z,3.80
2022-08-27T12:09:15.938Z,4.30
2022-08-27T12:11:59.527Z,4.60
2022-08-27T12:14:44.365Z,4.50
2022-08-27T12:17:28.286Z,4.90
2022-08-27T12:20:20.220Z,4.80
2022-08-27T12:23:31.663Z,5.30
2022-08-27T12:26:28.827Z,4.60
2022-08-27T12:29:27.776Z,4.50
2022-08-27T12:32:21.805Z,5.00
2022-08-27T12:35:01.096Z,4.40
2022-08-27T12:37:39.066Z,5.00
2022-08-27T12:40:21.017Z,4.90
2022-08-27T12:43:13.197Z,4.50
2022-08-27T12:45:51.125Z,4.70
2022-08-27T12:48:27.737Z,5.00
2022-08-27T12:51:02.897Z,4.50
2022-08-27T12:53:52.246Z,4.30
2022-08-27T12:56:51.718Z,5.10
2022-08-27T12:59:44.046Z,4.60
2022-08-27T13:02:28.897Z,4.30
2022-08-27T13:05:10.141Z,4.70
2022-08-27T13:07:48.507Z,4.40
2022-08-27T13:10:25.748Z,4.60
2022-08-27T13:13:09.080Z,4.50
2022-08-27T13:15:46.000Z,4.60
2022-08-27T13:18:19.524Z,4.10
2022-08-27T13:20:53.627Z,4.00
2022-08-27T13:23:28.300Z,4.30
2022-08-27T13:26:08.316Z,4.40
2022-08-27T13:28:43.936Z,4.40
2022-08-27T13:31:18.867Z,4.60
2022-08-27T13:33:52.485Z,4.70
2022-08-27T13:36:33.638Z,4.20
2022-08-27T13:39:07.727Z,3.60
2022-08-27T13:41:42.888Z,4.10
2022-08-27T13:44:26.078Z,4.70
2022-08-27T13:47:06.098Z,4.30
2022-08-27T13:49:41.418Z,4.20
2022-08-27T13:52:25.677Z,4.90
2022-08-27T13:55:06.563Z,4.30
2022-08-27T13:57:46.859Z,4.00
2022-08-27T14:00:26.788Z,4.30
2022-08-27T14:03:01.582Z,4.80
2022-08-27T14:05:37.307Z,5.10
2022-08-27T14:08:18.386Z,4.70
2022-08-27T14:11:00.545Z,4.20
2022-08-27T14:13:38.766Z,4.70
2022-08-27T14:16:26.752Z,4.80
2022-08-27T14:19:06.239Z,4.80
2022-08-27T14:21:40.868Z,4.30
2022-08-27T14:24:14.156Z,4.40
2022-08-27T14:26:53.508Z,5.10
2022-08-27T14:29:25.736Z,4.40
2022-08-27T14:31:58.009Z,4.80
2022-08-27T14:34:31.916Z,4.00
2022-08-27T14:37:05.518Z,4.90
2022-08-27T14:39:42.277Z,5.20
2022-08-27T14:42:15.018Z,5.10
2022-08-27T14:44:48.007Z,4.40
2022-08-27T14:47:20.399Z,4.40
2022-08-27T14:49:52.958Z,6.10
2022-08-27T14:54:56.157Z,4.20
2022-08-27T14:59:59.085Z,4.10
2022-08-27T15:05:12.054Z,4.20
2022-08-27T15:07:47.378Z,4.60
2022-08-27T15:10:19.979Z,4.20
2022-08-27T15:15:23.597Z,4.80
2022-08-27T15:17:56.388Z,4.40
2022-08-27T15:20:30.811Z,4.70
2022-08-27T15:23:04.319Z,4.50
2022-08-27T15:25:38.788Z,4.90
2022-08-27T15:28:11.605Z,5.20
2022-08-27T15:30:44.696Z,4.10
2022-08-27T15:33:18.258Z,4.60
2022-08-27T15:35:50.818Z,5.10
2022-08-27T15:40:54.746Z,4.40
2022-08-27T15:43:28.397Z,5.00
2022-08-27T15:46:01.097Z,4.10
2022-08-27T15:48:35.866Z,4.80
2022-08-27T15:51:11.097Z,4.60
2022-08-27T15:53:44.750Z,4.30
2022-08-27T15:56:17.510Z,4.70
2022-08-27T15:58:49.876Z,5.80
2022-08-27T16:01:28.914Z,4.60
2022-08-27T16:04:02.598Z,4.60
2022-08-27T16:06:36.536Z,5.00
2022-08-27T16:09:08.956Z,4.70
2022-08-27T16:11:41.317Z,5.10
2022-08-27T16:14:14.436Z,5.20
2022-08-27T16:16:50.562Z,5.30
2022-08-27T16:19:24.089Z,5.00
2022-08-27T16:21:57.838Z,5.10
2022-08-27T16:24:30.479Z,5.30
2022-08-27T16:27:03.060Z,5.50
2022-08-27T16:32:06.458Z,4.60
2022-08-27T16:34:41.286Z,5.60
2022-08-27T16:37:13.537Z,4.80
2022-08-27T16:39:47.116Z,5.40
2022-08-27T16:42:19.400Z,4.60
2022-08-27T16:44:51.796Z,4.60
2022-08-27T16:47:24.098Z,5.00
2022-08-27T16:50:24.160Z,5.70
2022-08-27T16:53:01.364Z,4.50
2022-08-27T16:55:38.095Z,4.90
2022-08-27T16:58:16.336Z,5.50
2022-08-27T17:00:52.066Z,5.70
2022-08-27T17:03:26.368Z,5.20
2022-08-27T17:05:58.976Z,4.90
2022-08-27T17:08:31.560Z,4.40
2022-08-27T17:11:12.677Z,5.00
2022-08-27T17:13:49.647Z,5.20
2022-08-27T17:16:25.098Z,5.20
2022-08-27T17:18:58.656Z,5.20
2022-08-27T17:21:32.928Z,5.90
2022-08-27T17:24:12.377Z,5.60
2022-08-27T17:26:45.597Z,5.90
2022-08-27T17:31:48.349Z,5.00
2022-08-27T17:34:25.179Z,6.10
2022-08-27T17:36:57.901Z,8.60
2022-08-27T17:39:31.696Z,4.90
2022-08-27T17:42:04.168Z,5.10
2022-08-27T17:44:39.279Z,5.30
2022-08-27T17:47:12.736Z,5.10
2022-08-27T17:49:45.816Z,5.50
2022-08-27T17:52:19.126Z,6.10
2022-08-27T17:54:54.474Z,5.80
2022-08-27T17:57:28.827Z,4.90
2022-08-27T18:00:04.802Z,4.90
2022-08-27T18:02:42.747Z,5.20
2022-08-27T18:05:17.205Z,5.00
2022-08-27T18:07:50.589Z,5.50
2022-08-27T18:10:25.099Z,5.30
2022-08-27T18:12:58.752Z,5.70
2022-08-27T18:15:34.606Z,6.80
2022-08-27T18:18:11.790Z,6.80
2022-08-27T18:20:46.298Z,7.50
2022-08-27T18:23:19.659Z,7.70
2022-08-27T18:25:52.438Z,8.20
2022-08-27T18:28:24.977Z,8.20
2022-08-27T18:30:57.779Z,8.70
2022-08-27T18:33:30.466Z,10.00
2022-08-27T18:36:03.226Z,8.00
2022-08-27T18:38:38.038Z,9.60
2022-08-27T18:41:11.289Z,9.40
2022-08-27T18:43:43.887Z,8.90
2022-08-27T18:46:17.506Z,9.50
2022-08-27T18:48:51.699Z,9.70
2022-08-27T18:51:24.310Z,9.50
2022-08-27T18:53:56.756Z,9.50
2022-08-27T18:56:31.646Z,9.30
2022-08-27T18:59:04.818Z,9.10
2022-08-27T19:04:14.768Z,9.00
2022-08-27T19:06:47.619Z,9.00
2022-08-27T19:09:22.969Z,9.00
2022-08-27T19:11:56.258Z,9.40
2022-08-27T19:14:29.447Z,8.70
2022-08-27T19:17:03.658Z,8.80
2022-08-27T19:19:36.920Z,9.90
2022-08-27T19:22:13.211Z,9.70
2022-08-27T19:24:51.727Z,9.20
2022-08-27T19:27:29.404Z,9.50
2022-08-27T19:30:02.505Z,9.70
2022-08-27T19:32:36.055Z,9.30
2022-08-27T19:35:12.307Z,10.80
2022-08-27T19:37:53.457Z,10.00
2022-08-27T19:40:27.109Z,11.00
2022-08-27T19:45:30.390Z,8.80
2022-08-27T19:48:04.797Z,9.20
2022-08-27T19:50:39.978Z,9.50
2022-08-27T19:53:13.293Z,9.80
2022-08-27T19:55:48.737Z,11.20
2022-08-27T19:58:22.920Z,11.70
2022-08-27T20:00:56.041Z,11.30
2022-08-27T20:03:30.518Z,11.40
2022-08-27T20:06:03.367Z,9.60
2022-08-27T20:08:35.976Z,9.10
2022-08-27T20:13:40.177Z,8.10
2022-08-27T20:16:23.434Z,7.50
2022-08-27T20:19:00.074Z,6.90
2022-08-27T20:21:34.227Z,7.00
2022-08-27T20:24:07.528Z,5.80
2022-08-27T20:26:39.994Z,6.10
2022-08-27T20:29:15.078Z,7.70
2022-08-27T20:32:05.320Z,5.30
2022-08-27T20:34:37.877Z,5.90
2022-08-27T20:37:10.458Z,6.00
2022-08-27T20:39:43.878Z,5.20
2022-08-27T20:42:16.522Z,5.30
2022-08-27T20:44:49.718Z,5.30
2022-08-27T20:47:27.807Z,4.50
2022-08-27T20:50:01.644Z,4.30
2022-08-27T20:52:35.944Z,4.80
2022-08-27T20:55:10.486Z,4.10
2022-08-27T20:58:06.722Z,3.80
2022-08-27T21:00:42.072Z,3.90
2022-08-27T21:03:16.894Z,3.90
2022-08-27T21:05:49.670Z,3.90
2022-08-27T21:08:24.827Z,3.60
2022-08-27T21:10:58.808Z,3.80
2022-08-27T21:13:32.236Z,3.90
2022-08-27T21:16:04.706Z,3.60
2022-08-27T21:18:37.256Z,3.80
2022-08-27T21:21:10.865Z,4.70
2022-08-27T21:23:43.375Z,3.40
2022-08-27T21:26:16.015Z,3.50
2022-08-27T21:28:48.787Z,3.70
2022-08-27T21:31:28.798Z,3.30
2022-08-27T21:34:01.337Z,3.40
2022-08-27T21:36:34.077Z,4.20
2022-08-27T21:41:37.753Z,3.80
